Terminal Aerodrome Forecast
Issued by NWS

Home | Current Version | Previous Version | Text Only | Print | Product List | Glossary On
Versions: 1 2 3 4 5 6 7 8 9 10 11 12 13 14
000
FTUS42 KMHX 070717 AAA
TAFOAJ
TAF AMD
KOAJ 070717Z 0707/0806 21003KT 4SM BR SCT008
     FM071300 21005KT P6SM SCT250
     FM071800 19008KT P6SM VCTS SCT050CB
     FM080000 18007KT P6SM SKC
      AMD LTD TO CLD VIS AND WIND=

USA.gov is the U.S. government's official web portal to all federal, state and local government web resources and services.